sensor_id;sensor_type;location;lat;lon;timestamp;P1;durP1;ratioP1;P2;durP2;ratioP2
77581;SDS011;66726;52.388;9.986;2024-03-02T00:01:52;23.20;;;15.03;;
77581;SDS011;66726;52.388;9.986;2024-03-02T00:04:20;19.53;;;14.87;;
77581;SDS011;66726;52.388;9.986;2024-03-02T00:06:50;18.47;;;14.43;;
77581;SDS011;66726;52.388;9.986;2024-03-02T00:09:21;18.00;;;14.53;;
77581;SDS011;66726;52.388;9.986;2024-03-02T00:11:50;17.73;;;14.97;;
77581;SDS011;66726;52.388;9.986;2024-03-02T00:14:18;18.33;;;14.77;;
77581;SDS011;66726;52.388;9.986;2024-03-02T00:16:46;20.57;;;15.13;;
77581;SDS011;66726;52.388;9.986;2024-03-02T00:19:16;18.63;;;14.77;;
77581;SDS011;66726;52.388;9.986;2024-03-02T00:21:44;19.03;;;15.60;;
77581;SDS011;66726;52.388;9.986;2024-03-02T00:24:17;18.50;;;14.17;;
77581;SDS011;66726;52.388;9.986;2024-03-02T00:26:54;20.43;;;14.97;;
77581;SDS011;66726;52.388;9.986;2024-03-02T00:29:22;17.77;;;14.20;;
77581;SDS011;66726;52.388;9.986;2024-03-02T00:31:50;19.10;;;15.33;;
77581;SDS011;66726;52.388;9.986;2024-03-02T00:34:21;21.33;;;16.30;;
77581;SDS011;66726;52.388;9.986;2024-03-02T00:36:50;18.87;;;15.20;;
77581;SDS011;66726;52.388;9.986;2024-03-02T00:39:18;22.43;;;16.43;;
77581;SDS011;66726;52.388;9.986;2024-03-02T00:41:46;22.00;;;16.63;;
77581;SDS011;66726;52.388;9.986;2024-03-02T00:44:15;22.83;;;17.63;;
77581;SDS011;66726;52.388;9.986;2024-03-02T00:46:47;22.00;;;16.97;;
77581;SDS011;66726;52.388;9.986;2024-03-02T00:49:17;22.97;;;17.87;;
77581;SDS011;66726;52.388;9.986;2024-03-02T00:51:50;24.67;;;18.00;;
77581;SDS011;66726;52.388;9.986;2024-03-02T00:54:21;23.10;;;16.73;;
77581;SDS011;66726;52.388;9.986;2024-03-02T00:56:51;24.10;;;17.33;;
77581;SDS011;66726;52.388;9.986;2024-03-02T00:59:21;22.73;;;17.30;;
77581;SDS011;66726;52.388;9.986;2024-03-02T01:01:50;25.50;;;18.17;;
77581;SDS011;66726;52.388;9.986;2024-03-02T01:04:21;22.10;;;17.30;;
77581;SDS011;66726;52.388;9.986;2024-03-02T01:06:49;23.33;;;17.07;;
77581;SDS011;66726;52.388;9.986;2024-03-02T01:09:18;22.97;;;17.30;;
77581;SDS011;66726;52.388;9.986;2024-03-02T01:11:46;21.77;;;17.67;;
77581;SDS011;66726;52.388;9.986;2024-03-02T01:14:15;24.93;;;17.80;;
77581;SDS011;66726;52.388;9.986;2024-03-02T01:16:43;23.57;;;17.60;;
77581;SDS011;66726;52.388;9.986;2024-03-02T01:19:11;22.13;;;17.37;;
77581;SDS011;66726;52.388;9.986;2024-03-02T01:21:41;22.73;;;17.70;;
77581;SDS011;66726;52.388;9.986;2024-03-02T01:24:09;24.00;;;17.97;;
77581;SDS011;66726;52.388;9.986;2024-03-02T01:26:39;21.07;;;17.20;;
77581;SDS011;66726;52.388;9.986;2024-03-02T01:29:07;21.97;;;16.57;;
77581;SDS011;66726;52.388;9.986;2024-03-02T01:31:35;22.63;;;17.43;;
77581;SDS011;66726;52.388;9.986;2024-03-02T01:34:03;22.23;;;17.30;;
77581;SDS011;66726;52.388;9.986;2024-03-02T01:36:32;22.43;;;17.60;;
77581;SDS011;66726;52.388;9.986;2024-03-02T01:39:01;22.60;;;17.23;;
77581;SDS011;66726;52.388;9.986;2024-03-02T01:41:30;23.63;;;17.87;;
77581;SDS011;66726;52.388;9.986;2024-03-02T01:43:58;22.37;;;17.13;;
77581;SDS011;66726;52.388;9.986;2024-03-02T01:46:26;21.80;;;17.33;;
77581;SDS011;66726;52.388;9.986;2024-03-02T01:48:55;25.37;;;17.60;;
77581;SDS011;66726;52.388;9.986;2024-03-02T01:51:23;23.40;;;17.90;;
77581;SDS011;66726;52.388;9.986;2024-03-02T01:53:51;24.03;;;18.23;;
77581;SDS011;66726;52.388;9.986;2024-03-02T01:56:21;23.10;;;18.00;;
77581;SDS011;66726;52.388;9.986;2024-03-02T01:58:49;23.40;;;16.90;;
77581;SDS011;66726;52.388;9.986;2024-03-02T02:01:17;20.70;;;17.27;;
77581;SDS011;66726;52.388;9.986;2024-03-02T02:03:45;22.97;;;16.73;;
77581;SDS011;66726;52.388;9.986;2024-03-02T02:06:13;24.70;;;17.07;;
77581;SDS011;66726;52.388;9.986;2024-03-02T02:08:42;21.53;;;17.30;;
77581;SDS011;66726;52.388;9.986;2024-03-02T02:11:11;22.80;;;17.77;;
77581;SDS011;66726;52.388;9.986;2024-03-02T02:13:44;24.67;;;17.57;;
77581;SDS011;66726;52.388;9.986;2024-03-02T02:16:12;23.73;;;17.77;;
77581;SDS011;66726;52.388;9.986;2024-03-02T02:18:40;23.47;;;18.47;;
77581;SDS011;66726;52.388;9.986;2024-03-02T02:21:08;26.60;;;18.87;;
77581;SDS011;66726;52.388;9.986;2024-03-02T02:23:38;26.40;;;19.07;;
77581;SDS011;66726;52.388;9.986;2024-03-02T02:26:08;25.13;;;18.40;;
77581;SDS011;66726;52.388;9.986;2024-03-02T02:28:36;23.20;;;17.93;;
77581;SDS011;66726;52.388;9.986;2024-03-02T02:31:05;25.20;;;18.73;;
77581;SDS011;66726;52.388;9.986;2024-03-02T02:33:34;26.37;;;19.53;;
77581;SDS011;66726;52.388;9.986;2024-03-02T02:36:06;23.80;;;18.50;;
77581;SDS011;66726;52.388;9.986;2024-03-02T02:38:38;26.10;;;19.63;;
77581;SDS011;66726;52.388;9.986;2024-03-02T02:41:13;25.77;;;18.83;;
77581;SDS011;66726;52.388;9.986;2024-03-02T02:43:41;23.70;;;18.03;;
77581;SDS011;66726;52.388;9.986;2024-03-02T02:46:09;24.40;;;18.37;;
77581;SDS011;66726;52.388;9.986;2024-03-02T02:48:36;23.47;;;18.33;;
77581;SDS011;66726;52.388;9.986;2024-03-02T02:51:04;28.07;;;19.37;;
77581;SDS011;66726;52.388;9.986;2024-03-02T02:53:32;26.87;;;19.40;;
77581;SDS011;66726;52.388;9.986;2024-03-02T02:56:03;25.63;;;18.47;;
77581;SDS011;66726;52.388;9.986;2024-03-02T02:58:32;25.17;;;18.27;;
77581;SDS011;66726;52.388;9.986;2024-03-02T03:01:00;26.00;;;19.43;;
77581;SDS011;66726;52.388;9.986;2024-03-02T03:03:28;25.10;;;18.90;;
77581;SDS011;66726;52.388;9.986;2024-03-02T03:05:56;24.87;;;19.23;;
77581;SDS011;66726;52.388;9.986;2024-03-02T03:08:24;25.47;;;18.83;;
77581;SDS011;66726;52.388;9.986;2024-03-02T03:10:53;26.67;;;20.43;;
77581;SDS011;66726;52.388;9.986;2024-03-02T03:13:22;27.40;;;19.57;;
77581;SDS011;66726;52.388;9.986;2024-03-02T03:15:52;26.77;;;19.43;;
77581;SDS011;66726;52.388;9.986;2024-03-02T03:18:21;26.07;;;19.67;;
77581;SDS011;66726;52.388;9.986;2024-03-02T03:20:49;25.00;;;19.13;;
77581;SDS011;66726;52.388;9.986;2024-03-02T03:23:17;26.07;;;20.10;;
77581;SDS011;66726;52.388;9.986;2024-03-02T03:25:45;28.70;;;19.23;;
77581;SDS011;66726;52.388;9.986;2024-03-02T03:28:13;25.23;;;19.27;;
77581;SDS011;66726;52.388;9.986;2024-03-02T03:30:42;27.03;;;19.57;;
77581;SDS011;66726;52.388;9.986;2024-03-02T03:33:10;25.67;;;19.63;;
77581;SDS011;66726;52.388;9.986;2024-03-02T03:35:38;27.17;;;19.00;;
77581;SDS011;66726;52.388;9.986;2024-03-02T03:38:06;25.63;;;19.87;;
77581;SDS011;66726;52.388;9.986;2024-03-02T03:40:34;26.63;;;18.90;;
77581;SDS011;66726;52.388;9.986;2024-03-02T03:43:03;26.83;;;19.57;;
77581;SDS011;66726;52.388;9.986;2024-03-02T03:45:31;24.77;;;19.07;;
77581;SDS011;66726;52.388;9.986;2024-03-02T03:48:01;26.17;;;18.70;;
77581;SDS011;66726;52.388;9.986;2024-03-02T03:50:30;26.80;;;19.57;;
77581;SDS011;66726;52.388;9.986;2024-03-02T03:52:58;25.67;;;18.93;;
77581;SDS011;66726;52.388;9.986;2024-03-02T03:55:26;25.80;;;19.00;;
77581;SDS011;66726;52.388;9.986;2024-03-02T03:57:54;25.07;;;18.90;;
77581;SDS011;66726;52.388;9.986;2024-03-02T04:00:23;27.90;;;18.93;;
77581;SDS011;66726;52.388;9.986;2024-03-02T04:02:51;26.57;;;19.27;;
77581;SDS011;66726;52.388;9.986;2024-03-02T04:05:21;29.40;;;19.13;;
77581;SDS011;66726;52.388;9.986;2024-03-02T04:07:49;26.80;;;19.47;;
77581;SDS011;66726;52.388;9.986;2024-03-02T04:10:17;25.07;;;19.30;;
77581;SDS011;66726;52.388;9.986;2024-03-02T04:12:47;25.80;;;19.33;;
77581;SDS011;66726;52.388;9.986;2024-03-02T04:15:17;24.27;;;18.97;;
77581;SDS011;66726;52.388;9.986;2024-03-02T04:17:46;26.80;;;19.20;;
77581;SDS011;66726;52.388;9.986;2024-03-02T04:20:14;25.70;;;18.93;;
77581;SDS011;66726;52.388;9.986;2024-03-02T04:22:43;27.23;;;20.17;;
77581;SDS011;66726;52.388;9.986;2024-03-02T04:25:11;24.37;;;17.60;;
77581;SDS011;66726;52.388;9.986;2024-03-02T04:27:40;24.77;;;18.90;;
77581;SDS011;66726;52.388;9.986;2024-03-02T04:30:09;26.90;;;18.90;;
77581;SDS011;66726;52.388;9.986;2024-03-02T04:32:38;28.87;;;20.03;;
77581;SDS011;66726;52.388;9.986;2024-03-02T04:35:07;24.43;;;18.53;;
77581;SDS011;66726;52.388;9.986;2024-03-02T04:37:36;26.57;;;18.50;;
77581;SDS011;66726;52.388;9.986;2024-03-02T04:40:06;24.67;;;18.60;;
77581;SDS011;66726;52.388;9.986;2024-03-02T04:42:36;25.53;;;19.03;;
77581;SDS011;66726;52.388;9.986;2024-03-02T04:45:05;27.40;;;18.33;;
77581;SDS011;66726;52.388;9.986;2024-03-02T04:47:34;25.03;;;18.40;;
77581;SDS011;66726;52.388;9.986;2024-03-02T04:50:02;26.60;;;19.93;;
77581;SDS011;66726;52.388;9.986;2024-03-02T04:52:34;26.20;;;19.33;;
77581;SDS011;66726;52.388;9.986;2024-03-02T04:55:02;26.10;;;18.23;;
77581;SDS011;66726;52.388;9.986;2024-03-02T04:57:47;30.80;;;19.60;;
77581;SDS011;66726;52.388;9.986;2024-03-02T05:00:17;26.17;;;19.27;;
77581;SDS011;66726;52.388;9.986;2024-03-02T05:02:46;25.00;;;18.57;;
77581;SDS011;66726;52.388;9.986;2024-03-02T05:05:14;26.30;;;19.80;;
77581;SDS011;66726;52.388;9.986;2024-03-02T05:07:42;25.20;;;18.80;;
77581;SDS011;66726;52.388;9.986;2024-03-02T05:10:10;28.93;;;20.40;;
77581;SDS011;66726;52.388;9.986;2024-03-02T05:12:38;26.30;;;18.83;;
77581;SDS011;66726;52.388;9.986;2024-03-02T05:15:24;23.20;;;18.83;;
77581;SDS011;66726;52.388;9.986;2024-03-02T05:17:53;23.70;;;18.50;;
77581;SDS011;66726;52.388;9.986;2024-03-02T05:20:23;23.73;;;18.03;;
77581;SDS011;66726;52.388;9.986;2024-03-02T05:22:51;28.50;;;18.60;;
77581;SDS011;66726;52.388;9.986;2024-03-02T05:25:19;29.33;;;20.13;;
77581;SDS011;66726;52.388;9.986;2024-03-02T05:27:47;28.37;;;19.53;;
77581;SDS011;66726;52.388;9.986;2024-03-02T05:30:16;24.70;;;19.43;;
77581;SDS011;66726;52.388;9.986;2024-03-02T05:32:45;28.70;;;20.63;;
77581;SDS011;66726;52.388;9.986;2024-03-02T05:35:13;27.23;;;20.23;;
77581;SDS011;66726;52.388;9.986;2024-03-02T05:37:42;26.03;;;20.10;;
77581;SDS011;66726;52.388;9.986;2024-03-02T05:40:10;27.70;;;20.63;;
77581;SDS011;66726;52.388;9.986;2024-03-02T05:42:39;28.27;;;21.53;;
77581;SDS011;66726;52.388;9.986;2024-03-02T05:45:08;28.30;;;20.77;;
77581;SDS011;66726;52.388;9.986;2024-03-02T05:47:36;27.20;;;20.07;;
77581;SDS011;66726;52.388;9.986;2024-03-02T05:50:06;31.10;;;21.37;;
77581;SDS011;66726;52.388;9.986;2024-03-02T05:52:35;27.87;;;20.20;;
77581;SDS011;66726;52.388;9.986;2024-03-02T05:55:03;29.70;;;20.97;;
77581;SDS011;66726;52.388;9.986;2024-03-02T05:57:32;28.23;;;21.30;;
77581;SDS011;66726;52.388;9.986;2024-03-02T06:00:14;30.40;;;21.03;;
77581;SDS011;66726;52.388;9.986;2024-03-02T06:02:44;29.90;;;21.27;;
77581;SDS011;66726;52.388;9.986;2024-03-02T06:05:14;29.87;;;21.77;;
77581;SDS011;66726;52.388;9.986;2024-03-02T06:07:43;28.27;;;20.60;;
77581;SDS011;66726;52.388;9.986;2024-03-02T06:10:13;30.70;;;20.43;;
77581;SDS011;66726;52.388;9.986;2024-03-02T06:12:42;30.33;;;20.70;;
77581;SDS011;66726;52.388;9.986;2024-03-02T06:15:10;27.60;;;20.20;;
77581;SDS011;66726;52.388;9.986;2024-03-02T06:17:38;31.30;;;21.03;;
77581;SDS011;66726;52.388;9.986;2024-03-02T06:20:07;29.03;;;20.50;;
77581;SDS011;66726;52.388;9.986;2024-03-02T06:22:38;28.27;;;19.83;;
77581;SDS011;66726;52.388;9.986;2024-03-02T06:25:06;26.23;;;19.37;;
77581;SDS011;66726;52.388;9.986;2024-03-02T06:27:35;28.03;;;20.10;;
77581;SDS011;66726;52.388;9.986;2024-03-02T06:30:04;26.73;;;20.43;;
77581;SDS011;66726;52.388;9.986;2024-03-02T06:32:33;28.40;;;19.30;;
77581;SDS011;66726;52.388;9.986;2024-03-02T06:35:01;27.07;;;20.33;;
77581;SDS011;66726;52.388;9.986;2024-03-02T06:37:31;33.27;;;20.90;;
77581;SDS011;66726;52.388;9.986;2024-03-02T06:40:00;26.17;;;19.73;;
77581;SDS011;66726;52.388;9.986;2024-03-02T06:42:29;26.60;;;20.03;;
77581;SDS011;66726;52.388;9.986;2024-03-02T06:45:00;27.67;;;20.10;;
77581;SDS011;66726;52.388;9.986;2024-03-02T06:47:28;25.43;;;19.90;;
77581;SDS011;66726;52.388;9.986;2024-03-02T06:49:56;28.27;;;19.57;;
77581;SDS011;66726;52.388;9.986;2024-03-02T06:52:25;29.70;;;19.73;;
77581;SDS011;66726;52.388;9.986;2024-03-02T06:54:53;27.60;;;20.53;;
77581;SDS011;66726;52.388;9.986;2024-03-02T06:57:23;28.63;;;20.17;;
77581;SDS011;66726;52.388;9.986;2024-03-02T06:59:51;26.43;;;19.90;;
77581;SDS011;66726;52.388;9.986;2024-03-02T07:02:21;28.43;;;20.70;;
77581;SDS011;66726;52.388;9.986;2024-03-02T07:04:49;30.17;;;20.77;;
77581;SDS011;66726;52.388;9.986;2024-03-02T07:07:17;30.07;;;21.37;;
77581;SDS011;66726;52.388;9.986;2024-03-02T07:09:45;28.20;;;19.97;;
77581;SDS011;66726;52.388;9.986;2024-03-02T07:12:14;27.23;;;20.07;;
77581;SDS011;66726;52.388;9.986;2024-03-02T07:14:44;27.57;;;19.50;;
77581;SDS011;66726;52.388;9.986;2024-03-02T07:17:34;25.27;;;18.10;;
77581;SDS011;66726;52.388;9.986;2024-03-02T07:20:03;25.43;;;19.00;;
77581;SDS011;66726;52.388;9.986;2024-03-02T07:22:33;25.10;;;17.87;;
77581;SDS011;66726;52.388;9.986;2024-03-02T07:25:01;27.30;;;18.47;;
77581;SDS011;66726;52.388;9.986;2024-03-02T07:27:30;23.60;;;18.53;;
77581;SDS011;66726;52.388;9.986;2024-03-02T07:30:01;26.30;;;18.90;;
77581;SDS011;66726;52.388;9.986;2024-03-02T07:32:29;28.20;;;19.87;;
77581;SDS011;66726;52.388;9.986;2024-03-02T07:34:57;26.80;;;18.93;;
77581;SDS011;66726;52.388;9.986;2024-03-02T07:37:27;25.20;;;19.00;;
77581;SDS011;66726;52.388;9.986;2024-03-02T07:39:55;24.10;;;18.07;;
77581;SDS011;66726;52.388;9.986;2024-03-02T07:42:24;28.20;;;19.17;;
77581;SDS011;66726;52.388;9.986;2024-03-02T07:44:52;25.63;;;18.97;;
77581;SDS011;66726;52.388;9.986;2024-03-02T07:47:22;25.53;;;18.47;;
77581;SDS011;66726;52.388;9.986;2024-03-02T07:49:50;27.83;;;20.40;;
77581;SDS011;66726;52.388;9.986;2024-03-02T07:52:18;25.60;;;18.30;;
77581;SDS011;66726;52.388;9.986;2024-03-02T07:54:46;26.93;;;19.17;;
77581;SDS011;66726;52.388;9.986;2024-03-02T07:57:14;25.10;;;19.30;;
77581;SDS011;66726;52.388;9.986;2024-03-02T07:59:42;25.77;;;19.30;;
77581;SDS011;66726;52.388;9.986;2024-03-02T08:02:11;25.40;;;18.77;;
77581;SDS011;66726;52.388;9.986;2024-03-02T08:04:41;28.33;;;18.43;;
77581;SDS011;66726;52.388;9.986;2024-03-02T08:07:09;25.97;;;19.17;;
77581;SDS011;66726;52.388;9.986;2024-03-02T08:09:37;24.97;;;18.37;;
77581;SDS011;66726;52.388;9.986;2024-03-02T08:12:06;28.30;;;21.03;;
77581;SDS011;66726;52.388;9.986;2024-03-02T08:14:34;27.17;;;19.97;;
77581;SDS011;66726;52.388;9.986;2024-03-02T08:17:03;25.97;;;19.37;;
77581;SDS011;66726;52.388;9.986;2024-03-02T08:19:36;29.80;;;19.43;;
77581;SDS011;66726;52.388;9.986;2024-03-02T08:22:06;24.97;;;18.07;;
77581;SDS011;66726;52.388;9.986;2024-03-02T08:24:34;26.77;;;20.70;;
77581;SDS011;66726;52.388;9.986;2024-03-02T08:27:03;30.90;;;19.70;;
77581;SDS011;66726;52.388;9.986;2024-03-02T08:29:32;25.47;;;19.03;;
77581;SDS011;66726;52.388;9.986;2024-03-02T08:32:00;25.53;;;18.50;;
77581;SDS011;66726;52.388;9.986;2024-03-02T08:34:28;26.27;;;18.03;;
77581;SDS011;66726;52.388;9.986;2024-03-02T08:36:56;28.20;;;19.00;;
77581;SDS011;66726;52.388;9.986;2024-03-02T08:39:26;26.57;;;17.80;;
77581;SDS011;66726;52.388;9.986;2024-03-02T08:41:54;23.93;;;17.70;;
77581;SDS011;66726;52.388;9.986;2024-03-02T08:44:23;27.73;;;18.67;;
77581;SDS011;66726;52.388;9.986;2024-03-02T08:46:51;24.23;;;18.33;;
77581;SDS011;66726;52.388;9.986;2024-03-02T08:49:19;23.60;;;17.77;;
77581;SDS011;66726;52.388;9.986;2024-03-02T08:51:48;23.63;;;17.67;;
77581;SDS011;66726;52.388;9.986;2024-03-02T08:54:21;20.93;;;16.53;;
77581;SDS011;66726;52.388;9.986;2024-03-02T08:56:51;22.00;;;16.27;;
77581;SDS011;66726;52.388;9.986;2024-03-02T08:59:19;25.17;;;15.70;;
77581;SDS011;66726;52.388;9.986;2024-03-02T09:01:47;20.37;;;16.20;;
77581;SDS011;66726;52.388;9.986;2024-03-02T09:04:15;22.00;;;16.23;;
77581;SDS011;66726;52.388;9.986;2024-03-02T09:06:44;21.40;;;16.03;;
77581;SDS011;66726;52.388;9.986;2024-03-02T09:09:12;21.93;;;16.90;;
77581;SDS011;66726;52.388;9.986;2024-03-02T09:11:40;21.93;;;16.70;;
77581;SDS011;66726;52.388;9.986;2024-03-02T09:14:10;21.63;;;16.40;;
77581;SDS011;66726;52.388;9.986;2024-03-02T09:16:38;23.70;;;16.23;;
77581;SDS011;66726;52.388;9.986;2024-03-02T09:19:06;21.40;;;15.90;;
77581;SDS011;66726;52.388;9.986;2024-03-02T09:21:33;18.73;;;14.63;;
77581;SDS011;66726;52.388;9.986;2024-03-02T09:24:01;20.37;;;14.97;;
77581;SDS011;66726;52.388;9.986;2024-03-02T09:26:30;19.43;;;14.90;;
77581;SDS011;66726;52.388;9.986;2024-03-02T09:28:58;18.37;;;14.33;;
77581;SDS011;66726;52.388;9.986;2024-03-02T09:31:28;21.57;;;15.47;;
77581;SDS011;66726;52.388;9.986;2024-03-02T09:33:56;25.27;;;14.47;;
77581;SDS011;66726;52.388;9.986;2024-03-02T09:36:24;19.47;;;14.43;;
77581;SDS011;66726;52.388;9.986;2024-03-02T09:38:53;19.40;;;14.53;;
77581;SDS011;66726;52.388;9.986;2024-03-02T09:41:21;17.40;;;13.67;;
77581;SDS011;66726;52.388;9.986;2024-03-02T09:43:49;20.57;;;13.73;;
77581;SDS011;66726;52.388;9.986;2024-03-02T09:46:18;17.93;;;13.67;;
77581;SDS011;66726;52.388;9.986;2024-03-02T09:48:48;17.90;;;13.40;;
77581;SDS011;66726;52.388;9.986;2024-03-02T09:51:17;19.97;;;13.80;;
77581;SDS011;66726;52.388;9.986;2024-03-02T09:53:47;18.87;;;14.63;;
77581;SDS011;66726;52.388;9.986;2024-03-02T09:56:16;19.00;;;13.37;;
77581;SDS011;66726;52.388;9.986;2024-03-02T09:58:45;18.10;;;14.33;;
77581;SDS011;66726;52.388;9.986;2024-03-02T10:01:13;17.07;;;12.77;;
77581;SDS011;66726;52.388;9.986;2024-03-02T10:03:41;17.83;;;13.33;;
77581;SDS011;66726;52.388;9.986;2024-03-02T10:06:21;17.20;;;13.13;;
77581;SDS011;66726;52.388;9.986;2024-03-02T10:08:51;17.57;;;14.00;;
77581;SDS011;66726;52.388;9.986;2024-03-02T10:11:25;18.30;;;13.67;;
77581;SDS011;66726;52.388;9.986;2024-03-02T10:14:05;18.47;;;13.77;;
77581;SDS011;66726;52.388;9.986;2024-03-02T10:16:35;17.97;;;13.60;;
77581;SDS011;66726;52.388;9.986;2024-03-02T10:19:17;19.30;;;13.50;;
77581;SDS011;66726;52.388;9.986;2024-03-02T10:21:49;17.33;;;12.60;;
77581;SDS011;66726;52.388;9.986;2024-03-02T10:24:20;16.50;;;13.00;;
77581;SDS011;66726;52.388;9.986;2024-03-02T10:26:49;18.77;;;13.00;;
77581;SDS011;66726;52.388;9.986;2024-03-02T10:29:18;18.30;;;12.67;;
77581;SDS011;66726;52.388;9.986;2024-03-02T10:31:46;14.47;;;11.83;;
77581;SDS011;66726;52.388;9.986;2024-03-02T10:34:15;15.83;;;11.80;;
77581;SDS011;66726;52.388;9.986;2024-03-02T10:36:43;14.20;;;11.47;;
77581;SDS011;66726;52.388;9.986;2024-03-02T10:39:14;15.03;;;11.40;;
77581;SDS011;66726;52.388;9.986;2024-03-02T10:41:42;15.73;;;12.10;;
77581;SDS011;66726;52.388;9.986;2024-03-02T10:44:14;17.00;;;12.67;;
77581;SDS011;66726;52.388;9.986;2024-03-02T10:46:44;15.77;;;11.90;;
77581;SDS011;66726;52.388;9.986;2024-03-02T10:49:16;20.63;;;11.93;;
77581;SDS011;66726;52.388;9.986;2024-03-02T10:51:46;15.93;;;12.47;;
77581;SDS011;66726;52.388;9.986;2024-03-02T10:54:15;16.60;;;12.40;;
77581;SDS011;66726;52.388;9.986;2024-03-02T10:56:52;13.70;;;10.67;;
77581;SDS011;66726;52.388;9.986;2024-03-02T10:59:24;12.60;;;10.57;;
77581;SDS011;66726;52.388;9.986;2024-03-02T11:01:57;15.17;;;11.63;;
77581;SDS011;66726;52.388;9.986;2024-03-02T11:04:31;15.07;;;11.03;;
77581;SDS011;66726;52.388;9.986;2024-03-02T11:07:02;17.67;;;11.97;;
77581;SDS011;66726;52.388;9.986;2024-03-02T11:09:35;14.30;;;10.80;;
77581;SDS011;66726;52.388;9.986;2024-03-02T11:12:09;14.73;;;10.60;;
77581;SDS011;66726;52.388;9.986;2024-03-02T11:14:46;13.63;;;10.73;;
77581;SDS011;66726;52.388;9.986;2024-03-02T11:17:14;15.67;;;12.70;;
77581;SDS011;66726;52.388;9.986;2024-03-02T11:19:44;14.60;;;11.63;;
77581;SDS011;66726;52.388;9.986;2024-03-02T11:22:15;16.70;;;12.30;;
77581;SDS011;66726;52.388;9.986;2024-03-02T11:24:49;13.90;;;11.50;;
77581;SDS011;66726;52.388;9.986;2024-03-02T11:30:48;14.17;;;11.43;;
77581;SDS011;66726;52.388;9.986;2024-03-02T11:33:24;13.07;;;10.50;;
77581;SDS011;66726;52.388;9.986;2024-03-02T11:35:56;12.13;;;10.33;;
77581;SDS011;66726;52.388;9.986;2024-03-02T11:38:28;13.37;;;9.53;;
77581;SDS011;66726;52.388;9.986;2024-03-02T11:41:00;14.43;;;10.13;;
77581;SDS011;66726;52.388;9.986;2024-03-02T11:43:30;12.40;;;9.73;;
77581;SDS011;66726;52.388;9.986;2024-03-02T11:45:59;13.33;;;10.63;;
77581;SDS011;66726;52.388;9.986;2024-03-02T11:48:31;12.80;;;9.50;;
77581;SDS011;66726;52.388;9.986;2024-03-02T11:51:00;12.03;;;9.33;;
77581;SDS011;66726;52.388;9.986;2024-03-02T11:53:28;11.80;;;9.57;;
77581;SDS011;66726;52.388;9.986;2024-03-02T11:56:03;12.83;;;10.00;;
77581;SDS011;66726;52.388;9.986;2024-03-02T11:58:35;13.40;;;9.17;;
77581;SDS011;66726;52.388;9.986;2024-03-02T12:01:07;12.37;;;9.80;;
77581;SDS011;66726;52.388;9.986;2024-03-02T12:03:36;13.90;;;9.50;;
77581;SDS011;66726;52.388;9.986;2024-03-02T12:06:05;11.13;;;9.20;;
77581;SDS011;66726;52.388;9.986;2024-03-02T12:08:34;11.90;;;9.27;;
77581;SDS011;66726;52.388;9.986;2024-03-02T12:11:05;14.17;;;9.27;;
77581;SDS011;66726;52.388;9.986;2024-03-02T12:13:33;13.57;;;8.47;;
77581;SDS011;66726;52.388;9.986;2024-03-02T12:16:02;11.47;;;9.23;;
77581;SDS011;66726;52.388;9.986;2024-03-02T12:18:31;11.30;;;9.40;;
77581;SDS011;66726;52.388;9.986;2024-03-02T12:20:59;17.47;;;14.37;;
77581;SDS011;66726;52.388;9.986;2024-03-02T12:23:29;10.87;;;8.70;;
77581;SDS011;66726;52.388;9.986;2024-03-02T12:25:57;12.47;;;8.63;;
77581;SDS011;66726;52.388;9.986;2024-03-02T12:28:27;11.60;;;8.60;;
77581;SDS011;66726;52.388;9.986;2024-03-02T12:30:57;10.87;;;8.07;;
77581;SDS011;66726;52.388;9.986;2024-03-02T12:33:26;10.87;;;7.97;;
77581;SDS011;66726;52.388;9.986;2024-03-02T12:35:56;10.97;;;8.67;;
77581;SDS011;66726;52.388;9.986;2024-03-02T12:38:25;10.17;;;8.20;;
77581;SDS011;66726;52.388;9.986;2024-03-02T12:40:53;10.93;;;8.20;;
77581;SDS011;66726;52.388;9.986;2024-03-02T12:43:21;10.50;;;8.43;;
77581;SDS011;66726;52.388;9.986;2024-03-02T12:45:52;10.57;;;7.87;;
77581;SDS011;66726;52.388;9.986;2024-03-02T12:48:22;11.53;;;7.93;;
77581;SDS011;66726;52.388;9.986;2024-03-02T12:50:50;9.87;;;7.17;;
77581;SDS011;66726;52.388;9.986;2024-03-02T12:53:19;10.97;;;8.07;;
77581;SDS011;66726;52.388;9.986;2024-03-02T12:55:49;9.37;;;7.00;;
77581;SDS011;66726;52.388;9.986;2024-03-02T12:58:18;11.77;;;7.23;;
77581;SDS011;66726;52.388;9.986;2024-03-02T13:00:48;9.27;;;6.83;;
77581;SDS011;66726;52.388;9.986;2024-03-02T13:03:18;8.03;;;6.63;;
77581;SDS011;66726;52.388;9.986;2024-03-02T13:05:49;7.30;;;5.67;;
77581;SDS011;66726;52.388;9.986;2024-03-02T13:08:17;8.23;;;5.53;;
77581;SDS011;66726;52.388;9.986;2024-03-02T13:10:46;6.97;;;6.27;;
77581;SDS011;66726;52.388;9.986;2024-03-02T13:13:14;7.53;;;6.00;;
77581;SDS011;66726;52.388;9.986;2024-03-02T13:15:42;8.07;;;6.10;;
77581;SDS011;66726;52.388;9.986;2024-03-02T13:18:11;7.13;;;6.10;;
77581;SDS011;66726;52.388;9.986;2024-03-02T13:20:41;8.67;;;6.43;;
77581;SDS011;66726;52.388;9.986;2024-03-02T13:23:09;6.90;;;5.70;;
77581;SDS011;66726;52.388;9.986;2024-03-02T13:25:37;9.23;;;6.07;;
77581;SDS011;66726;52.388;9.986;2024-03-02T13:28:05;7.67;;;6.20;;
77581;SDS011;66726;52.388;9.986;2024-03-02T13:30:35;7.83;;;5.73;;
77581;SDS011;66726;52.388;9.986;2024-03-02T13:33:03;7.67;;;6.17;;
77581;SDS011;66726;52.388;9.986;2024-03-02T13:35:32;7.63;;;6.80;;
77581;SDS011;66726;52.388;9.986;2024-03-02T13:38:01;11.37;;;7.20;;
77581;SDS011;66726;52.388;9.986;2024-03-02T13:40:30;10.00;;;6.93;;
77581;SDS011;66726;52.388;9.986;2024-03-02T13:43:01;9.57;;;6.90;;
77581;SDS011;66726;52.388;9.986;2024-03-02T13:45:30;9.43;;;6.67;;
77581;SDS011;66726;52.388;9.986;2024-03-02T13:47:59;10.63;;;6.70;;
77581;SDS011;66726;52.388;9.986;2024-03-02T13:50:29;9.60;;;6.67;;
77581;SDS011;66726;52.388;9.986;2024-03-02T13:52:58;7.73;;;6.13;;
77581;SDS011;66726;52.388;9.986;2024-03-02T13:55:27;8.20;;;6.40;;
77581;SDS011;66726;52.388;9.986;2024-03-02T13:57:55;7.87;;;6.60;;
77581;SDS011;66726;52.388;9.986;2024-03-02T14:00:24;9.60;;;6.60;;
77581;SDS011;66726;52.388;9.986;2024-03-02T14:02:52;8.53;;;6.17;;
77581;SDS011;66726;52.388;9.986;2024-03-02T14:05:21;7.93;;;6.50;;
77581;SDS011;66726;52.388;9.986;2024-03-02T14:07:49;8.90;;;6.20;;
77581;SDS011;66726;52.388;9.986;2024-03-02T14:10:17;8.57;;;5.97;;
77581;SDS011;66726;52.388;9.986;2024-03-02T14:12:50;8.07;;;6.40;;
77581;SDS011;66726;52.388;9.986;2024-03-02T14:15:18;7.57;;;5.87;;
77581;SDS011;66726;52.388;9.986;2024-03-02T14:17:47;7.47;;;6.20;;
77581;SDS011;66726;52.388;9.986;2024-03-02T14:20:16;9.47;;;5.73;;
77581;SDS011;66726;52.388;9.986;2024-03-02T14:22:48;6.50;;;5.40;;
77581;SDS011;66726;52.388;9.986;2024-03-02T14:25:17;7.00;;;5.73;;
77581;SDS011;66726;52.388;9.986;2024-03-02T14:27:45;6.57;;;5.20;;
77581;SDS011;66726;52.388;9.986;2024-03-02T14:30:35;5.93;;;5.17;;
77581;SDS011;66726;52.388;9.986;2024-03-02T14:33:03;6.47;;;5.30;;
77581;SDS011;66726;52.388;9.986;2024-03-02T14:35:32;8.83;;;5.27;;
77581;SDS011;66726;52.388;9.986;2024-03-02T14:38:01;6.10;;;5.23;;
77581;SDS011;66726;52.388;9.986;2024-03-02T14:40:29;6.10;;;5.37;;
77581;SDS011;66726;52.388;9.986;2024-03-02T14:42:57;7.17;;;5.63;;